Time;durP1;ratioP1;P1;durP2;ratioP2;P2;SDS_P1;SDS_P2;PMS_P1;PMS_P2;Temp;Humidity;BMP_temperature;BMP_pressure;BME280_temperature;BME280_humidity;BME280_pressure;Samples;Min_cycle;Max_cycle;Signal;HPM_P1;HPM_P2
2021/11/05 00:00:50;;;;;;;4.13;2.63;;;6.20;99.90;;;;;;5052268;28;20032;-67
2021/11/05 00:03:16;;;;;;;3.13;2.25;;;6.10;99.90;;;;;;5051182;28;20029;-66
2021/11/05 00:05:42;;;;;;;3.25;2.33;;;6.20;99.90;;;;;;5051283;28;20374;-66
2021/11/05 00:08:08;;;;;;;3.05;2.25;;;6.10;99.90;;;;;;5050443;28;20073;-66
2021/11/05 00:10:39;;;;;;;3.08;2.35;;;6.10;99.90;;;;;;5053163;28;20029;-66
2021/11/05 00:13:05;;;;;;;3.03;2.35;;;6.00;99.90;;;;;;5053530;28;20040;-66
2021/11/05 00:15:31;;;;;;;3.97;2.50;;;6.10;99.90;;;;;;5055692;28;20044;-66
2021/11/05 00:17:57;;;;;;;2.75;2.40;;;6.10;99.90;;;;;;5054150;28;20021;-66
2021/11/05 00:20:23;;;;;;;2.08;1.95;;;6.00;99.90;;;;;;5055165;28;20033;-66
2021/11/05 00:22:50;;;;;;;3.22;2.25;;;6.10;99.90;;;;;;5055230;28;20123;-67
2021/11/05 00:25:16;;;;;;;2.50;2.30;;;6.10;99.90;;;;;;5054714;28;20092;-66
2021/11/05 00:27:41;;;;;;;2.47;2.28;;;6.10;99.90;;;;;;5055407;28;20479;-67
2021/11/05 00:30:10;;;;;;;2.60;2.40;;;6.00;99.90;;;;;;5054569;28;20029;-66
2021/11/05 00:32:36;;;;;;;3.13;2.50;;;6.10;99.90;;;;;;5054866;28;20036;-66
2021/11/05 00:35:03;;;;;;;5.13;2.60;;;6.10;99.90;;;;;;5054317;28;20162;-66
2021/11/05 00:37:28;;;;;;;3.22;2.50;;;6.00;99.90;;;;;;5054954;28;20163;-66
2021/11/05 00:39:54;;;;;;;4.20;2.70;;;6.00;99.90;;;;;;5054983;28;20104;-66
2021/11/05 00:42:20;;;;;;;3.38;2.75;;;6.00;99.90;;;;;;5054760;28;20546;-66
2021/11/05 00:44:45;;;;;;;3.72;3.08;;;6.00;99.90;;;;;;5053700;28;20057;-66
2021/11/05 00:47:11;;;;;;;5.53;2.70;;;6.00;99.90;;;;;;5054061;28;20032;-66
2021/11/05 00:49:37;;;;;;;4.88;2.92;;;6.00;99.90;;;;;;5054739;28;20478;-67
2021/11/05 00:52:03;;;;;;;4.78;2.75;;;6.00;99.90;;;;;;5053858;28;20453;-66
2021/11/05 00:54:29;;;;;;;3.42;2.80;;;6.00;99.90;;;;;;5054252;28;20112;-66
2021/11/05 00:56:55;;;;;;;3.45;2.60;;;6.00;99.90;;;;;;5054852;28;20100;-66
2021/11/05 00:59:20;;;;;;;3.28;2.97;;;5.90;99.90;;;;;;5054491;28;20025;-66
2021/11/05 01:01:46;;;;;;;4.25;2.78;;;5.90;99.90;;;;;;5055208;28;20041;-66
2021/11/05 01:04:12;;;;;;;3.92;2.65;;;6.00;99.90;;;;;;5054198;28;20025;-66
2021/11/05 01:06:37;;;;;;;4.03;2.83;;;6.00;99.90;;;;;;5054750;28;20053;-66
2021/11/05 01:09:04;;;;;;;3.30;2.90;;;5.90;99.90;;;;;;5053644;28;20025;-66
2021/11/05 01:11:30;;;;;;;6.35;3.00;;;5.90;99.90;;;;;;5054670;28;20040;-66
2021/11/05 01:13:55;;;;;;;3.50;2.65;;;5.80;99.90;;;;;;5054547;28;20036;-67
2021/11/05 01:16:21;;;;;;;3.65;2.92;;;5.80;99.90;;;;;;5054298;28;20382;-66
2021/11/05 01:18:47;;;;;;;3.80;2.85;;;5.70;99.90;;;;;;5054362;28;20104;-66
2021/11/05 01:21:14;;;;;;;6.72;2.83;;;5.70;99.90;;;;;;5053060;28;20028;-66
2021/11/05 01:23:41;;;;;;;3.60;3.00;;;5.70;99.90;;;;;;5053750;28;20074;-67
2021/11/05 01:26:06;;;;;;;4.82;2.83;;;5.70;99.90;;;;;;5053193;28;20029;-67
2021/11/05 01:28:32;;;;;;;7.15;2.70;;;5.70;99.90;;;;;;5054203;28;20033;-67
2021/11/05 01:30:58;;;;;;;2.97;2.67;;;5.80;99.90;;;;;;5053960;28;20029;-66
2021/11/05 01:33:23;;;;;;;3.10;2.80;;;5.70;99.90;;;;;;5051836;28;20024;-66
2021/11/05 01:35:49;;;;;;;3.90;2.72;;;5.70;99.90;;;;;;5053642;28;20501;-66
2021/11/05 01:38:15;;;;;;;3.40;2.78;;;5.80;99.90;;;;;;5053409;28;20029;-66
2021/11/05 01:40:42;;;;;;;3.17;2.55;;;5.70;99.90;;;;;;5053987;28;20021;-66
2021/11/05 01:43:09;;;;;;;2.80;2.50;;;5.70;99.90;;;;;;5053014;28;20086;-66
2021/11/05 01:45:35;;;;;;;4.88;2.90;;;5.70;99.90;;;;;;5053345;28;20052;-66
2021/11/05 01:48:01;;;;;;;3.38;2.55;;;5.70;99.90;;;;;;5053178;28;20033;-66
2021/11/05 01:50:27;;;;;;;4.00;3.13;;;5.70;99.90;;;;;;5053819;28;20354;-66
2021/11/05 01:52:53;;;;;;;3.15;2.72;;;5.70;99.90;;;;;;5053879;28;20037;-66
2021/11/05 01:55:19;;;;;;;3.80;3.08;;;5.70;99.90;;;;;;5052771;28;20021;-66
2021/11/05 01:57:45;;;;;;;4.78;2.92;;;5.70;99.90;;;;;;5053327;28;20515;-66
2021/11/05 02:00:14;;;;;;;3.47;3.10;;;5.70;99.90;;;;;;5052623;28;20033;-66
2021/11/05 02:02:40;;;;;;;3.38;2.95;;;5.70;99.90;;;;;;5053526;28;20037;-66
2021/11/05 02:05:06;;;;;;;3.97;3.42;;;5.70;99.90;;;;;;5052816;28;20027;-66
2021/11/05 02:07:35;;;;;;;5.25;3.38;;;5.60;99.90;;;;;;5053759;28;20021;-67
2021/11/05 02:10:06;;;;;;;4.18;3.58;;;5.50;99.90;;;;;;5052477;28;20122;-66
2021/11/05 02:12:33;;;;;;;3.90;3.50;;;5.40;99.90;;;;;;5052170;28;20359;-66
2021/11/05 02:15:00;;;;;;;6.00;3.50;;;5.30;99.90;;;;;;5052642;28;20037;-67
2021/11/05 02:17:27;;;;;;;4.47;3.17;;;5.30;99.90;;;;;;5053218;28;20025;-66
2021/11/05 02:19:52;;;;;;;6.75;3.30;;;5.20;99.90;;;;;;5053363;28;20037;-66
2021/11/05 02:22:19;;;;;;;4.63;3.47;;;5.20;99.90;;;;;;5052505;28;20110;-67
2021/11/05 02:24:45;;;;;;;4.85;3.70;;;5.20;99.90;;;;;;5052990;28;20025;-66
2021/11/05 02:27:11;;;;;;;5.13;3.50;;;5.10;99.90;;;;;;5052272;28;20040;-66
2021/11/05 02:29:37;;;;;;;4.10;3.00;;;5.20;99.90;;;;;;5053291;28;20021;-66
2021/11/05 02:32:04;;;;;;;4.05;3.35;;;5.10;99.90;;;;;;5052098;28;20140;-66
2021/11/05 02:34:31;;;;;;;4.53;3.58;;;5.10;99.90;;;;;;5052373;28;20036;-66
2021/11/05 02:36:58;;;;;;;3.70;3.05;;;5.10;99.90;;;;;;5053053;28;20100;-67
2021/11/05 02:39:24;;;;;;;3.67;3.35;;;5.10;99.90;;;;;;5052593;28;20029;-66
2021/11/05 02:41:51;;;;;;;3.78;3.38;;;5.00;99.90;;;;;;5052659;28;20051;-66
2021/11/05 02:44:18;;;;;;;6.45;4.00;;;5.00;99.90;;;;;;5051829;28;20401;-66
2021/11/05 02:46:44;;;;;;;4.63;4.07;;;5.10;99.90;;;;;;5052759;28;20025;-66
2021/11/05 02:49:14;;;;;;;5.53;3.97;;;5.00;99.90;;;;;;5051003;28;20037;-66
2021/11/05 02:51:40;;;;;;;4.45;3.90;;;5.00;99.90;;;;;;5051303;28;20033;-67
2021/11/05 02:54:07;;;;;;;4.88;3.90;;;5.00;99.90;;;;;;5051876;28;20033;-68
2021/11/05 02:56:33;;;;;;;4.47;4.07;;;5.00;99.90;;;;;;5052727;28;20064;-66
2021/11/05 02:58:58;;;;;;;6.47;4.00;;;5.00;99.90;;;;;;5052912;28;20049;-67
2021/11/05 03:01:25;;;;;;;4.65;3.85;;;5.10;99.90;;;;;;5051353;28;20419;-66
2021/11/05 03:03:51;;;;;;;5.88;3.90;;;5.10;99.90;;;;;;5052426;28;20029;-67
2021/11/05 03:06:17;;;;;;;4.30;3.90;;;5.10;99.90;;;;;;5051187;28;20367;-66
2021/11/05 03:08:43;;;;;;;6.50;4.00;;;5.10;99.90;;;;;;5052230;28;20032;-67
2021/11/05 03:11:12;;;;;;;5.07;3.80;;;5.10;99.90;;;;;;5051082;28;20435;-68
2021/11/05 03:13:42;;;;;;;4.63;3.85;;;5.10;99.90;;;;;;5052150;28;20107;-66
2021/11/05 03:16:08;;;;;;;;;;;5.10;99.90;;;;;;5050576;28;20067;-66
2021/11/05 03:18:34;;;;;;;5.00;3.80;;;5.10;99.90;;;;;;5051676;28;20047;-66
2021/11/05 03:21:00;;;;;;;5.38;4.10;;;5.10;99.90;;;;;;5051347;28;20021;-66
2021/11/05 03:23:29;;;;;;;5.72;4.10;;;5.10;99.90;;;;;;5051306;28;20126;-66
2021/11/05 03:25:55;;;;;;;4.32;3.92;;;5.20;99.90;;;;;;5051618;28;20024;-66
2021/11/05 03:28:21;;;;;;;4.72;4.20;;;5.10;99.90;;;;;;5050978;28;20655;-67
2021/11/05 03:30:47;;;;;;;3.97;3.55;;;5.20;99.90;;;;;;5051380;28;20024;-67
2021/11/05 03:33:13;;;;;;;4.90;4.05;;;5.20;99.90;;;;;;5050581;28;20536;-67
2021/11/05 03:35:39;;;;;;;4.93;3.85;;;5.20;99.90;;;;;;5051334;28;20086;-66
2021/11/05 03:38:05;;;;;;;4.95;3.70;;;5.20;99.90;;;;;;5050769;28;20075;-66
2021/11/05 03:40:33;;;;;;;5.40;3.58;;;5.20;99.90;;;;;;5051029;28;20036;-66
2021/11/05 03:42:58;;;;;;;4.95;4.40;;;5.20;99.90;;;;;;5051236;28;20029;-66
2021/11/05 03:45:24;;;;;;;7.35;4.53;;;5.10;99.90;;;;;;5049674;28;20053;-66
2021/11/05 03:47:49;;;;;;;4.95;3.85;;;5.20;99.90;;;;;;5051092;28;20040;-66
2021/11/05 03:50:16;;;;;;;5.03;3.75;;;5.10;99.90;;;;;;5048595;28;20025;-66
2021/11/05 03:52:43;;;;;;;4.40;3.80;;;5.10;99.90;;;;;;5051043;28;20056;-67
2021/11/05 03:55:08;;;;;;;5.05;4.28;;;5.10;99.90;;;;;;5050434;28;20025;-67
2021/11/05 03:57:34;;;;;;;4.50;4.10;;;5.10;99.90;;;;;;5051261;28;20032;-66
2021/11/05 04:00:00;;;;;;;3.88;3.40;;;5.10;99.90;;;;;;5051034;28;20086;-66
2021/11/05 04:02:26;;;;;;;5.95;3.60;;;5.10;99.90;;;;;;5049952;28;20376;-66
2021/11/05 04:04:55;;;;;;;4.85;4.20;;;5.10;99.90;;;;;;5051303;28;20029;-66
2021/11/05 04:07:22;;;;;;;5.15;3.95;;;5.10;99.90;;;;;;5050092;28;20083;-66
2021/11/05 04:09:48;;;;;;;4.20;3.60;;;5.20;99.90;;;;;;5050694;28;20053;-67
2021/11/05 04:12:14;;;;;;;5.60;4.00;;;5.20;99.90;;;;;;5050480;28;20068;-66
2021/11/05 04:14:40;;;;;;;5.63;3.80;;;5.20;99.90;;;;;;5051049;28;20037;-66
2021/11/05 04:17:06;;;;;;;4.82;3.75;;;5.20;99.90;;;;;;5049925;28;20154;-66
2021/11/05 04:19:32;;;;;;;4.57;4.07;;;5.20;99.90;;;;;;5050891;28;20048;-66
2021/11/05 04:21:57;;;;;;;4.15;3.40;;;5.10;99.90;;;;;;5049289;28;20037;-66
2021/11/05 04:24:23;;;;;;;4.60;3.00;;;5.20;99.90;;;;;;5050064;28;20163;-66
2021/11/05 04:26:49;;;;;;;4.35;3.42;;;5.20;99.90;;;;;;5050649;28;20029;-66
2021/11/05 04:29:16;;;;;;;5.72;3.55;;;5.20;99.90;;;;;;5048653;28;20374;-66
2021/11/05 04:31:42;;;;;;;3.70;3.15;;;5.20;99.90;;;;;;5050590;28;20105;-66
2021/11/05 04:34:08;;;;;;;3.35;3.05;;;5.30;99.90;;;;;;5050065;28;20124;-66
2021/11/05 04:36:34;;;;;;;2.53;2.22;;;5.30;99.90;;;;;;5050816;28;20052;-67
2021/11/05 04:38:59;;;;;;;2.58;2.38;;;5.30;99.90;;;;;;5050722;28;20033;-67
2021/11/05 04:41:25;;;;;;;2.80;2.60;;;5.30;99.90;;;;;;5050087;28;20021;-66
2021/11/05 04:43:51;;;;;;;3.05;2.70;;;5.30;99.90;;;;;;5050158;28;20039;-66
2021/11/05 04:46:18;;;;;;;3.35;2.65;;;5.30;99.90;;;;;;5049805;28;20025;-66
2021/11/05 04:48:44;;;;;;;2.15;1.95;;;5.30;99.90;;;;;;5049383;28;20029;-66
2021/11/05 04:51:10;;;;;;;2.83;2.60;;;5.30;99.90;;;;;;5048063;28;20060;-66
2021/11/05 04:53:35;;;;;;;4.03;2.72;;;5.30;99.90;;;;;;5049308;28;20462;-66
2021/11/05 04:56:02;;;;;;;2.17;1.98;;;5.40;99.90;;;;;;5049001;28;20036;-66
2021/11/05 04:58:28;;;;;;;3.55;2.65;;;5.50;99.90;;;;;;5051116;28;20048;-66
2021/11/05 05:00:53;;;;;;;2.40;2.15;;;5.40;99.90;;;;;;5052799;28;20454;-66
2021/11/05 05:03:19;;;;;;;2.58;2.25;;;5.40;99.90;;;;;;5051714;28;20081;-66
2021/11/05 05:05:45;;;;;;;2.55;2.35;;;5.40;99.90;;;;;;5052843;28;20028;-66
2021/11/05 05:08:11;;;;;;;2.65;2.25;;;5.40;99.90;;;;;;5051692;28;20021;-66
2021/11/05 05:10:37;;;;;;;4.60;2.60;;;5.40;99.90;;;;;;5052019;28;20055;-66
2021/11/05 05:13:03;;;;;;;3.47;2.47;;;5.40;99.90;;;;;;5052123;28;20035;-66
2021/11/05 05:15:29;;;;;;;3.90;2.47;;;5.40;99.90;;;;;;5052173;28;20119;-66
2021/11/05 05:17:54;;;;;;;3.42;3.00;;;5.40;99.90;;;;;;5052113;28;20029;-67
2021/11/05 05:20:21;;;;;;;2.95;2.20;;;5.40;99.90;;;;;;5051873;28;20060;-66
2021/11/05 05:22:47;;;;;;;3.47;2.60;;;5.30;99.90;;;;;;5052285;28;20075;-66
2021/11/05 05:25:16;;;;;;;3.10;2.28;;;5.30;99.90;;;;;;5051992;28;20044;-66
2021/11/05 05:27:43;;;;;;;3.53;2.40;;;5.30;99.90;;;;;;5053493;28;20029;-66
2021/11/05 05:30:13;;;;;;;3.72;3.10;;;5.30;99.90;;;;;;5052538;28;20037;-67
2021/11/05 05:32:43;;;;;;;2.67;2.33;;;5.30;99.90;;;;;;5053385;28;20416;-67
2021/11/05 05:35:09;;;;;;;2.78;2.55;;;5.30;99.90;;;;;;5052843;28;20033;-66
2021/11/05 05:37:35;;;;;;;4.53;2.90;;;5.30;99.90;;;;;;5053320;28;20036;-66
2021/11/05 05:40:01;;;;;;;3.28;2.55;;;5.30;99.90;;;;;;5053442;28;20371;-67
2021/11/05 05:42:26;;;;;;;3.13;2.83;;;5.30;99.90;;;;;;5052629;28;20631;-67
2021/11/05 05:44:52;;;;;;;2.20;2.00;;;5.20;99.90;;;;;;5053475;28;20076;-68
2021/11/05 05:47:18;;;;;;;2.20;2.00;;;5.30;99.90;;;;;;5051279;28;20500;-67
2021/11/05 05:49:44;;;;;;;3.08;2.20;;;5.20;99.90;;;;;;5053427;28;20351;-67
2021/11/05 05:52:09;;;;;;;4.13;2.00;;;5.20;99.90;;;;;;5052643;28;20158;-67
2021/11/05 05:54:35;;;;;;;2.17;1.95;;;5.20;99.90;;;;;;5053312;28;20036;-67
2021/11/05 05:57:00;;;;;;;2.97;2.20;;;5.30;99.90;;;;;;5053114;28;20036;-67
2021/11/05 05:59:27;;;;;;;2.42;1.90;;;5.30;99.90;;;;;;5052368;28;20114;-67
2021/11/05 06:01:53;;;;;;;2.47;2.15;;;5.30;99.90;;;;;;5052386;28;20043;-67
2021/11/05 06:04:19;;;;;;;4.90;2.70;;;5.30;99.90;;;;;;5052505;28;20029;-67
2021/11/05 06:06:45;;;;;;;3.10;2.30;;;5.30;99.90;;;;;;5053182;28;20033;-67
2021/11/05 06:09:11;;;;;;;2.90;2.40;;;5.40;99.90;;;;;;5051748;28;20021;-67
2021/11/05 06:11:37;;;;;;;3.53;2.50;;;5.40;99.90;;;;;;5052644;28;20029;-67
2021/11/05 06:14:02;;;;;;;2.60;2.40;;;5.40;99.90;;;;;;5051305;28;20032;-66
2021/11/05 06:16:28;;;;;;;2.92;2.47;;;5.40;99.90;;;;;;5052348;28;20036;-67
2021/11/05 06:18:54;;;;;;;2.88;2.65;;;5.40;99.90;;;;;;5052630;28;20497;-66
2021/11/05 06:21:24;;;;;;;2.70;2.30;;;5.40;99.90;;;;;;5051984;28;20056;-67
2021/11/05 06:23:50;;;;;;;3.22;2.58;;;5.50;99.90;;;;;;5052564;28;20044;-66
2021/11/05 06:26:16;;;;;;;3.45;2.50;;;5.50;99.90;;;;;;5051795;28;20025;-67
2021/11/05 06:28:42;;;;;;;2.97;2.70;;;5.50;99.90;;;;;;5052885;28;20098;-70
2021/11/05 06:31:07;;;;;;;3.67;2.83;;;5.50;99.90;;;;;;5051981;28;20323;-67
2021/11/05 06:33:33;;;;;;;3.20;2.90;;;5.50;99.90;;;;;;5052843;28;20068;-67
2021/11/05 06:35:58;;;;;;;2.63;2.42;;;5.50;99.90;;;;;;5052850;28;20032;-66
2021/11/05 06:38:24;;;;;;;2.55;2.25;;;5.50;99.90;;;;;;5051980;28;20320;-75
2021/11/05 06:40:50;;;;;;;3.30;2.97;;;5.60;99.90;;;;;;5052672;28;20098;-67
2021/11/05 06:43:16;;;;;;;3.05;2.47;;;5.60;99.90;;;;;;5051036;28;20128;-67
2021/11/05 06:45:41;;;;;;;3.30;2.97;;;5.60;99.90;;;;;;5052814;28;20259;-67
2021/11/05 06:48:07;;;;;;;4.50;3.78;;;5.60;99.90;;;;;;5051671;28;20025;-67
2021/11/05 06:50:33;;;;;;;3.85;2.95;;;5.60;99.90;;;;;;5052619;28;20025;-70
2021/11/05 06:52:59;;;;;;;3.85;3.20;;;5.60;99.90;;;;;;5052633;28;20083;-67
2021/11/05 06:55:24;;;;;;;4.55;2.92;;;5.70;99.90;;;;;;5051826;28;20029;-67
2021/11/05 06:57:50;;;;;;;5.07;3.33;;;5.70;99.90;;;;;;5052158;28;20025;-74
2021/11/05 07:00:16;;;;;;;4.82;3.60;;;5.70;99.90;;;;;;5051156;28;20492;-73
2021/11/05 07:02:42;;;;;;;4.05;3.47;;;5.70;99.90;;;;;;5051132;28;20033;-72
2021/11/05 07:05:12;;;;;;;4.65;3.25;;;5.70;99.90;;;;;;5051265;28;20074;-76
2021/11/05 07:07:39;;;;;;;4.75;3.25;;;5.70;99.90;;;;;;5052234;28;20111;-69
2021/11/05 07:10:05;;;;;;;5.97;3.88;;;5.70;99.90;;;;;;5052205;28;20390;-69
2021/11/05 07:12:32;;;;;;;4.32;3.55;;;5.60;99.90;;;;;;5050635;28;20119;-68
2021/11/05 07:14:58;;;;;;;7.68;2.92;;;5.70;99.90;;;;;;5047637;28;20033;-68
2021/11/05 07:17:24;;;;;;;6.30;3.33;;;5.70;99.90;;;;;;5048810;28;20103;-68
2021/11/05 07:19:50;;;;;;;4.00;3.60;;;5.70;99.90;;;;;;5052230;28;20480;-68
2021/11/05 07:22:17;;;;;;;4.00;3.15;;;5.70;99.90;;;;;;5051610;28;20028;-68
2021/11/05 07:24:44;;;;;;;6.43;3.40;;;5.70;99.90;;;;;;5051652;28;20059;-68
2021/11/05 07:27:11;;;;;;;4.95;4.00;;;5.70;99.90;;;;;;5051078;28;20458;-69
2021/11/05 07:29:37;;;;;;;4.20;3.80;;;5.70;99.90;;;;;;5052025;28;20032;-68
2021/11/05 07:32:07;;;;;;;5.35;3.60;;;5.70;99.90;;;;;;5052186;28;20450;-69
2021/11/05 07:34:33;;;;;;;4.18;3.78;;;5.70;99.90;;;;;;5051655;28;20032;-69
2021/11/05 07:37:04;;;;;;;4.38;3.53;;;5.70;99.90;;;;;;5051811;28;20029;-69
2021/11/05 07:39:30;;;;;;;4.68;3.40;;;5.70;99.90;;;;;;5051005;28;20040;-69
2021/11/05 07:41:56;;;;;;;5.32;3.35;;;5.70;99.90;;;;;;5051438;28;20033;-68
2021/11/05 07:44:22;;;;;;;9.57;4.47;;;5.70;99.90;;;;;;5050885;28;20041;-69
2021/11/05 07:46:48;;;;;;;5.95;4.35;;;5.80;99.90;;;;;;5051094;28;20037;-70
2021/11/05 07:49:15;;;;;;;7.68;3.50;;;5.80;99.90;;;;;;5050920;28;20032;-70
2021/11/05 07:51:41;;;;;;;4.53;3.75;;;5.80;99.90;;;;;;5051503;28;20060;-68
2021/11/05 07:54:08;;;;;;;4.88;3.78;;;5.80;99.90;;;;;;5051255;28;20060;-68
2021/11/05 07:56:35;;;;;;;5.05;3.17;;;5.90;99.90;;;;;;5051524;28;20029;-68
2021/11/05 07:59:05;;;;;;;5.43;3.40;;;5.90;99.90;;;;;;5050990;28;20378;-68
2021/11/05 08:01:31;;;;;;;5.72;3.47;;;5.90;99.90;;;;;;5050185;28;20484;-68
2021/11/05 08:03:56;;;;;;;3.65;3.05;;;5.90;99.90;;;;;;5051010;28;20034;-68
2021/11/05 08:06:22;;;;;;;10.38;3.53;;;5.90;99.90;;;;;;5050768;28;20029;-67
2021/11/05 08:08:48;;;;;;;4.40;2.97;;;6.00;99.90;;;;;;5051458;28;20105;-67
2021/11/05 08:11:14;;;;;;;3.53;3.15;;;6.10;99.90;;;;;;5050697;28;20123;-69
2021/11/05 08:13:40;;;;;;;5.43;3.25;;;6.10;99.90;;;;;;5050802;28;20032;-69
2021/11/05 08:16:06;;;;;;;3.85;3.45;;;6.20;99.90;;;;;;5049647;28;20108;-73
2021/11/05 08:18:32;;;;;;;4.30;3.40;;;6.20;99.90;;;;;;5050892;28;20407;-72
2021/11/05 08:20:58;;;;;;;5.75;3.25;;;6.30;99.90;;;;;;5051306;28;20028;-74
2021/11/05 08:23:23;;;;;;;4.80;3.10;;;6.30;99.90;;;;;;5050737;28;20037;-72
2021/11/05 08:25:49;;;;;;;4.93;3.30;;;6.40;99.90;;;;;;5051210;28;20057;-73
2021/11/05 08:28:16;;;;;;;4.07;3.20;;;6.50;99.90;;;;;;5050597;28;20079;-72
2021/11/05 08:30:42;;;;;;;5.55;3.85;;;6.60;99.90;;;;;;5051136;28;20061;-72
2021/11/05 08:33:09;;;;;;;4.82;3.78;;;6.70;99.90;;;;;;5054849;28;20113;-71
2021/11/05 08:35:35;;;;;;;7.75;4.28;;;6.80;99.90;;;;;;5054957;28;20079;-68
2021/11/05 08:38:02;;;;;;;5.88;4.32;;;6.90;99.90;;;;;;5055065;28;20029;-71
2021/11/05 08:40:28;;;;;;;7.00;5.22;;;7.00;99.90;;;;;;5054279;28;20382;-68
2021/11/05 08:42:54;;;;;;;5.82;3.92;;;7.10;99.90;;;;;;5055202;28;20116;-68
2021/11/05 08:45:20;;;;;;;5.60;4.50;;;7.10;99.90;;;;;;5053424;28;20486;-68
2021/11/05 08:47:46;;;;;;;5.65;3.78;;;7.20;99.90;;;;;;5055464;28;20059;-68
2021/11/05 08:50:22;;;;;;;7.03;4.30;;;7.20;99.90;;;;;;5054163;28;20053;-67
2021/11/05 08:52:50;;;;;;;4.60;3.90;;;7.20;99.90;;;;;;5054676;28;20496;-68
2021/11/05 08:55:16;;;;;;;5.35;4.00;;;7.20;99.90;;;;;;5054389;28;20029;-67
2021/11/05 08:57:43;;;;;;;5.53;3.90;;;7.30;99.90;;;;;;5054610;28;20025;-67
2021/11/05 09:00:12;;;;;;;5.32;4.00;;;7.30;99.90;;;;;;5054683;28;20028;-67
2021/11/05 09:02:40;;;;;;;5.60;3.35;;;7.40;99.90;;;;;;5054490;28;20029;-67
2021/11/05 09:05:06;;;;;;;4.43;3.30;;;7.50;99.90;;;;;;5054722;28;20099;-67
2021/11/05 09:07:31;;;;;;;6.20;3.80;;;7.60;99.90;;;;;;5054242;28;20548;-67
2021/11/05 09:09:57;;;;;;;4.28;3.17;;;7.70;99.90;;;;;;5054680;28;20100;-67
2021/11/05 09:12:23;;;;;;;2.53;1.73;;;7.80;99.90;;;;;;5053420;28;20154;-67
2021/11/05 09:14:51;;;;;;;5.47;2.45;;;7.80;99.90;;;;;;5054141;28;20069;-68
2021/11/05 09:17:18;;;;;;;2.08;1.70;;;8.00;99.90;;;;;;5053833;28;20036;-67
2021/11/05 09:19:43;;;;;;;2.17;1.50;;;7.90;99.90;;;;;;5054767;28;20462;-68
2021/11/05 09:22:09;;;;;;;1.85;1.00;;;7.90;99.90;;;;;;5054194;28;20041;-67
2021/11/05 09:24:35;;;;;;;1.20;1.10;;;8.00;99.90;;;;;;5053848;28;20032;-67
2021/11/05 09:27:01;;;;;;;1.60;1.10;;;8.10;99.90;;;;;;5054399;28;20029;-67
2021/11/05 09:29:27;;;;;;;1.13;1.00;;;8.10;99.90;;;;;;5053741;28;20474;-67
2021/11/05 09:31:54;;;;;;;6.38;1.60;;;8.10;99.90;;;;;;5053894;28;20025;-67
2021/11/05 09:34:19;;;;;;;1.60;1.38;;;8.20;99.90;;;;;;5053804;28;20424;-67
2021/11/05 09:37:06;;;;;;;1.60;1.40;;;8.30;99.90;;;;;;5054282;28;20028;-68
2021/11/05 09:39:32;;;;;;;2.92;1.60;;;8.50;99.90;;;;;;5053253;28;20116;-68
2021/11/05 09:41:59;;;;;;;2.35;2.10;;;8.60;99.90;;;;;;5054002;28;20120;-67
2021/11/05 09:44:25;;;;;;;3.45;2.92;;;8.60;99.90;;;;;;5052429;28;20143;-68
2021/11/05 09:46:53;;;;;;;2.47;2.20;;;8.60;99.90;;;;;;5053887;28;20032;-67
2021/11/05 09:49:19;;;;;;;3.83;2.08;;;8.50;99.90;;;;;;5053491;28;20072;-68
2021/11/05 09:51:45;;;;;;;3.85;2.17;;;8.40;99.90;;;;;;5053878;28;20029;-68
2021/11/05 09:54:16;;;;;;;4.32;2.72;;;8.40;99.90;;;;;;5053644;28;20029;-69
2021/11/05 09:56:41;;;;;;;;;;;8.30;99.90;;;;;;5054118;28;20028;-68
2021/11/05 09:59:07;;;;;;;3.35;2.00;;;8.30;99.90;;;;;;5053862;28;19905;-68
2021/11/05 10:01:33;;;;;;;2.78;2.20;;;8.30;99.90;;;;;;5052711;28;20115;-69
2021/11/05 10:03:59;;;;;;;3.17;2.38;;;8.30;99.90;;;;;;5053519;28;20421;-68
2021/11/05 10:06:25;;;;;;;3.85;2.88;;;8.50;99.90;;;;;;5053322;28;20115;-69
2021/11/05 10:08:52;;;;;;;5.88;2.63;;;8.60;99.90;;;;;;5053626;28;20055;-68
2021/11/05 10:11:32;;;;;;;4.57;2.72;;;8.70;99.90;;;;;;5052803;28;20060;-68
2021/11/05 10:14:00;;;;;;;5.38;2.65;;;8.90;99.90;;;;;;5053286;28;20044;-68
2021/11/05 10:16:28;;;;;;;2.92;2.55;;;8.90;99.90;;;;;;5052360;28;20081;-67
2021/11/05 10:19:05;;;;;;;3.83;2.40;;;9.00;99.90;;;;;;5053554;28;20017;-68
2021/11/05 10:21:40;;;;;;;2.72;2.30;;;9.00;99.90;;;;;;5052549;28;20017;-68
2021/11/05 10:24:24;;;;;;;2.95;2.08;;;9.00;99.90;;;;;;5053387;28;20045;-68
2021/11/05 10:26:50;;;;;;;5.35;2.47;;;9.00;99.90;;;;;;5053207;28;20037;-69
2021/11/05 10:29:31;;;;;;;2.72;2.20;;;9.00;99.90;;;;;;5052753;28;20111;-69
2021/11/05 10:32:06;;;;;;;3.60;2.85;;;9.10;99.90;;;;;;5052842;28;20079;-70
2021/11/05 10:34:49;;;;;;;3.92;3.08;;;9.10;99.90;;;;;;5052583;28;20458;-68
2021/11/05 10:37:32;;;;;;;5.35;3.03;;;9.20;99.90;;;;;;5052421;28;20470;-68
2021/11/05 10:39:59;;;;;;;6.10;2.80;;;9.30;99.90;;;;;;5053137;28;20427;-69
2021/11/05 10:42:37;;;;;;;3.45;2.72;;;9.30;99.90;;;;;;5051514;28;20044;-69
2021/11/05 10:45:14;;;;;;;5.90;3.20;;;9.50;99.90;;;;;;5052513;28;20059;-69
2021/11/05 10:47:55;;;;;;;5.85;2.97;;;9.50;99.90;;;;;;5052590;28;20040;-69
2021/11/05 10:50:25;;;;;;;5.43;2.80;;;9.60;99.90;;;;;;5052249;28;20410;-68
2021/11/05 10:53:05;;;;;;;3.85;2.80;;;9.60;99.90;;;;;;5052392;28;20033;-69
2021/11/05 10:56:01;;;;;;;2.88;2.60;;;9.60;99.90;;;;;;5052181;28;20108;-68
2021/11/05 10:58:28;;;;;;;4.88;3.65;;;9.60;99.90;;;;;;5043803;28;20102;-67
2021/11/05 11:01:11;;;;;;;4.32;3.58;;;9.70;99.90;;;;;;5052416;28;20524;-69
2021/11/05 11:03:43;;;;;;;4.03;3.47;;;9.80;99.90;;;;;;5051942;28;20094;-69
2021/11/05 11:06:18;;;;;;;5.75;3.90;;;9.70;99.90;;;;;;5052696;28;20027;-68
2021/11/05 11:08:46;;;;;;;4.05;3.65;;;9.70;99.90;;;;;;5052272;28;20047;-69
2021/11/05 11:11:35;;;;;;;10.13;3.85;;;9.60;99.90;;;;;;5052274;28;20024;-69
2021/11/05 11:14:02;;;;;;;4.40;3.65;;;9.50;99.90;;;;;;5051726;28;20033;-69
2021/11/05 11:16:40;;;;;;;4.35;3.78;;;9.40;99.90;;;;;;5051384;28;20036;-69
2021/11/05 11:19:18;;;;;;;5.93;3.83;;;9.30;99.90;;;;;;5052052;28;20095;-70
2021/11/05 11:21:46;;;;;;;8.70;4.20;;;9.20;99.90;;;;;;5051816;28;20071;-69
2021/11/05 11:24:16;;;;;;;6.75;5.07;;;9.20;99.90;;;;;;5051980;28;20030;-68
2021/11/05 11:26:43;;;;;;;10.25;4.55;;;9.10;99.90;;;;;;5052348;28;20174;-68
2021/11/05 11:29:10;;;;;;;4.40;4.00;;;9.00;99.90;;;;;;5052492;28;20440;-69
2021/11/05 11:31:37;;;;;;;6.80;4.18;;;9.00;99.90;;;;;;5051420;28;20398;-68
2021/11/05 11:34:05;;;;;;;6.53;4.68;;;9.00;99.90;;;;;;5052307;28;20029;-73
2021/11/05 11:36:37;;;;;;;5.65;4.72;;;9.10;99.90;;;;;;5052707;28;20432;-73
2021/11/05 11:39:07;;;;;;;5.82;4.60;;;9.30;99.90;;;;;;5054066;28;20024;-74
2021/11/05 11:41:34;;;;;;;6.50;5.43;;;9.40;99.90;;;;;;5052635;28;20032;-75
2021/11/05 11:44:03;;;;;;;6.22;4.75;;;9.50;99.90;;;;;;5053114;28;20061;-72
2021/11/05 11:46:49;;;;;;;6.43;5.07;;;9.50;99.90;;;;;;5051903;28;20033;-70
2021/11/05 11:49:37;;;;;;;7.03;5.00;;;9.60;99.90;;;;;;5051303;28;20037;-70
2021/11/05 11:52:04;;;;;;;6.10;4.95;;;9.70;99.90;;;;;;5051824;28;20033;-71
2021/11/05 11:54:32;;;;;;;7.40;4.85;;;9.90;99.90;;;;;;5050911;28;20059;-71
2021/11/05 11:57:25;;;;;;;5.05;3.80;;;10.10;99.90;;;;;;5051630;28;20390;-71
2021/11/05 12:00:09;;;;;;;5.90;4.20;;;10.10;99.90;;;;;;5052232;28;20074;-73
2021/11/05 12:02:41;;;;;;;5.00;4.38;;;10.20;99.90;;;;;;5050789;28;20065;-67
2021/11/05 12:05:19;;;;;;;4.38;3.97;;;10.20;99.90;;;;;;5051571;28;20039;-70
2021/11/05 12:08:14;;;;;;;5.50;5.00;;;10.30;99.90;;;;;;5058490;28;20020;-70
2021/11/05 12:10:43;;;;;;;6.07;4.93;;;10.20;99.90;;;;;;5042384;28;20048;-71
2021/11/05 12:13:52;;;;;;;6.90;5.05;;;10.20;99.90;;;;;;5058064;28;20025;-70
2021/11/05 12:16:31;;;;;;;6.10;5.35;;;10.10;99.90;;;;;;5037525;28;20558;-69
2021/11/05 12:19:09;;;;;;;6.70;4.90;;;10.00;99.90;;;;;;5057954;28;20035;-66
2021/11/05 12:21:45;;;;;;;5.32;4.63;;;10.00;99.90;;;;;;5057165;28;20032;-66
2021/11/05 12:24:14;;;;;;;4.85;4.43;;;10.00;99.90;;;;;;5058229;28;20041;-68
2021/11/05 12:26:53;;;;;;;5.40;4.23;;;10.00;99.90;;;;;;5057495;28;20028;-70
2021/11/05 12:29:34;;;;;;;4.22;3.83;;;10.00;99.90;;;;;;5057580;28;20264;-68
2021/11/05 12:32:15;;;;;;;4.70;4.15;;;10.10;99.90;;;;;;5057716;28;20316;-68
2021/11/05 12:34:46;;;;;;;5.45;4.57;;;10.10;99.90;;;;;;5057036;28;20028;-68
2021/11/05 12:37:28;;;;;;;6.03;4.95;;;10.30;99.90;;;;;;5058225;28;20101;-68
2021/11/05 12:39:54;;;;;;;4.85;4.32;;;10.40;99.90;;;;;;5057826;28;20040;-69
2021/11/05 12:42:20;;;;;;;7.68;4.60;;;10.50;99.90;;;;;;5057222;28;20389;-74
2021/11/05 12:45:04;;;;;;;5.57;5.00;;;10.50;99.90;;;;;;5057982;28;20057;-71
2021/11/05 12:47:45;;;;;;;6.22;5.13;;;10.60;99.90;;;;;;5057066;28;20040;-73
2021/11/05 12:50:12;;;;;;;5.95;4.63;;;10.60;99.90;;;;;;5057574;28;20366;-66
2021/11/05 12:52:38;;;;;;;6.30;5.00;;;10.70;99.90;;;;;;5057296;28;20428;-76
2021/11/05 12:55:05;;;;;;;5.18;4.25;;;10.90;99.90;;;;;;5057944;28;20083;-67
2021/11/05 12:57:31;;;;;;;8.85;4.65;;;11.10;99.90;;;;;;5057173;28;20037;-72
2021/11/05 12:59:57;;;;;;;4.93;4.43;;;11.30;99.90;;;;;;5057716;28;20106;-71
2021/11/05 13:02:26;;;;;;;5.70;5.10;;;11.50;99.90;;;;;;5056598;28;20076;-72